createdAt,value
2023-04-18T00:01:15.098Z,9.07
2023-04-18T00:06:16.801Z,9.06
2023-04-18T00:11:18.455Z,9.03
2023-04-18T00:16:20.877Z,9.04
2023-04-18T00:21:22.732Z,9.04
2023-04-18T00:26:24.422Z,9.03
2023-04-18T00:31:26.910Z,9.04
2023-04-18T00:36:28.881Z,9.05
2023-04-18T00:41:30.588Z,9.05
2023-04-18T00:46:32.689Z,9.06
2023-04-18T00:51:35.620Z,9.08
2023-04-18T00:56:37.423Z,9.09
2023-04-18T01:01:40.185Z,9.08
2023-04-18T01:06:44.129Z,9.06
2023-04-18T01:11:46.056Z,9.07
2023-04-18T01:16:51.262Z,9.07
2023-04-18T01:21:54.337Z,9.10
2023-04-18T01:26:57.182Z,9.11
2023-04-18T01:31:58.942Z,9.09
2023-04-18T01:37:00.818Z,9.10
2023-04-18T01:42:02.811Z,9.11
2023-04-18T01:47:04.537Z,9.10
2023-04-18T01:52:07.549Z,9.12
2023-04-18T01:57:09.220Z,9.12
2023-04-18T02:02:11.443Z,9.10
2023-04-18T02:07:13.422Z,9.10
2023-04-18T02:12:15.261Z,9.10
2023-04-18T02:17:16.934Z,9.10
2023-04-18T02:22:18.830Z,9.08
2023-04-18T02:27:20.814Z,9.05
2023-04-18T02:32:22.605Z,9.04
2023-04-18T02:37:24.467Z,9.05
2023-04-18T02:42:26.317Z,9.04
2023-04-18T02:47:28.037Z,9.03
2023-04-18T02:52:30.500Z,9.02
2023-04-18T02:57:32.246Z,9.00
2023-04-18T03:02:34.396Z,8.95
2023-04-18T03:07:44.500Z,8.92
2023-04-18T03:12:47.640Z,8.92
2023-04-18T03:17:51.425Z,8.95
2023-04-18T03:22:55.111Z,8.97
2023-04-18T03:27:59.217Z,8.99
2023-04-18T03:33:02.939Z,9.03
2023-04-18T03:38:05.397Z,9.04
2023-04-18T03:43:08.674Z,9.07
2023-04-18T03:48:11.077Z,9.08
2023-04-18T03:53:16.036Z,9.07
2023-04-18T03:58:18.160Z,9.09
2023-04-18T04:03:20.546Z,9.10
2023-04-18T04:08:22.830Z,9.12
2023-04-18T04:13:24.594Z,9.15
2023-04-18T04:18:31.189Z,9.17
2023-04-18T04:23:34.370Z,9.20
2023-04-18T04:28:37.151Z,9.17
2023-04-18T04:33:41.084Z,9.28
2023-04-18T04:38:48.934Z,9.32
2023-04-18T04:43:52.324Z,9.38
2023-04-18T04:48:57.362Z,9.41
2023-04-18T04:54:00.570Z,9.45
2023-04-18T04:59:02.889Z,9.49
2023-04-18T05:04:09.692Z,9.52
2023-04-18T05:09:11.511Z,9.54
2023-04-18T05:14:13.521Z,9.60
2023-04-18T05:19:15.763Z,9.66
2023-04-18T05:24:17.466Z,9.74
2023-04-18T05:29:19.381Z,9.84
2023-04-18T05:34:21.177Z,9.95
2023-04-18T05:39:22.960Z,10.06
2023-04-18T05:44:24.885Z,10.16
2023-04-18T05:49:26.969Z,10.24
2023-04-18T05:54:29.063Z,10.33
2023-04-18T05:59:30.791Z,10.38
2023-04-18T06:04:32.736Z,10.41
2023-04-18T06:09:34.899Z,10.52
2023-04-18T06:14:36.584Z,10.68
2023-04-18T06:19:39.576Z,10.76
2023-04-18T06:24:41.346Z,10.93
2023-04-18T06:29:43.895Z,11.12
2023-04-18T06:34:45.773Z,11.27
2023-04-18T06:39:47.578Z,11.50
2023-04-18T06:44:49.273Z,11.77
2023-04-18T06:49:51.238Z,11.98
2023-04-18T06:54:52.977Z,12.08
2023-04-18T06:59:54.713Z,12.10
2023-04-18T07:04:56.702Z,12.17
2023-04-18T07:09:59.147Z,12.30
2023-04-18T07:15:00.840Z,12.57
2023-04-18T07:20:03.250Z,13.04
2023-04-18T07:25:05.113Z,13.66
2023-04-18T07:30:07.517Z,13.98
2023-04-18T07:35:10.084Z,14.30
2023-04-18T07:40:12.330Z,14.89
2023-04-18T07:45:15.499Z,15.44
2023-04-18T07:50:17.292Z,15.51
2023-04-18T07:55:19.105Z,15.55
2023-04-18T08:00:21.259Z,16.18
2023-04-18T08:05:23.273Z,17.21
2023-04-18T08:10:25.204Z,17.86
2023-04-18T08:15:28.984Z,18.28
2023-04-18T08:20:31.261Z,18.49
2023-04-18T08:25:33.349Z,18.43
2023-04-18T08:30:35.393Z,18.52
2023-04-18T08:35:37.243Z,18.27
2023-04-18T08:40:39.029Z,17.98
2023-04-18T08:45:44.889Z,17.59
2023-04-18T08:50:47.908Z,17.31
2023-04-18T08:55:53.995Z,17.23
2023-04-18T09:00:55.791Z,17.37
2023-04-18T09:06:09.324Z,17.90
2023-04-18T09:11:42.475Z,18.39
2023-04-18T09:16:47.288Z,18.85
2023-04-18T09:21:57.799Z,19.22
2023-04-18T09:27:01.194Z,19.09
2023-04-18T09:32:02.927Z,18.67
2023-04-18T09:37:11.033Z,18.01
2023-04-18T09:42:13.781Z,17.74
2023-04-18T09:47:15.527Z,17.53
2023-04-18T09:52:19.429Z,17.42
2023-04-18T09:57:22.109Z,17.34
2023-04-18T10:02:26.350Z,17.22
2023-04-18T10:07:28.461Z,17.12
2023-04-18T10:12:30.714Z,17.00
2023-04-18T10:18:03.664Z,16.78
2023-04-18T10:23:32.031Z,16.58
2023-04-18T10:28:57.221Z,16.67
2023-04-18T10:39:22.702Z,17.20
2023-04-18T10:44:24.548Z,17.37
2023-04-18T10:49:31.092Z,17.33
2023-04-18T10:54:56.463Z,17.28
2023-04-18T11:00:01.083Z,17.25
2023-04-18T11:05:04.842Z,17.30
2023-04-18T11:10:08.931Z,17.25
2023-04-18T11:15:11.670Z,17.28
2023-04-18T11:20:14.906Z,17.29
2023-04-18T11:25:17.666Z,17.20
2023-04-18T11:30:19.427Z,17.07
2023-04-18T11:35:21.428Z,17.03
2023-04-18T11:40:23.346Z,17.05
2023-04-18T11:45:25.067Z,17.20
2023-04-18T11:50:27.390Z,17.42
2023-04-18T11:55:29.311Z,17.56
2023-04-18T12:00:39.626Z,17.59
2023-04-18T12:05:42.280Z,17.57
2023-04-18T12:10:52.646Z,17.62
2023-04-18T12:15:54.595Z,17.65
2023-04-18T12:20:58.542Z,17.71
2023-04-18T12:26:05.783Z,17.62
2023-04-18T12:31:07.677Z,17.54
2023-04-18T12:36:10.671Z,17.55
2023-04-18T12:41:12.708Z,17.41
2023-04-18T12:46:14.277Z,17.40
2023-04-18T12:51:16.001Z,17.46
2023-04-18T12:56:17.918Z,17.50
2023-04-18T13:01:19.893Z,17.52
2023-04-18T13:06:21.679Z,17.57
2023-04-18T13:11:28.478Z,17.62
2023-04-18T13:16:30.347Z,17.73
2023-04-18T13:21:31.958Z,17.80
2023-04-18T13:26:37.635Z,17.85
2023-04-18T13:31:39.339Z,17.89
2023-04-18T13:36:41.060Z,17.93
2023-04-18T13:41:43.374Z,17.86
2023-04-18T13:46:45.267Z,17.71
2023-04-18T13:51:46.914Z,17.66
2023-04-18T13:56:50.185Z,17.71
2023-04-18T14:01:53.321Z,17.77
2023-04-18T14:06:55.538Z,17.84
2023-04-18T14:11:58.490Z,17.78
2023-04-18T14:17:00.486Z,17.75
2023-04-18T14:22:02.113Z,17.70
2023-04-18T14:27:04.126Z,17.71
2023-04-18T14:32:07.019Z,17.70
2023-04-18T14:37:08.962Z,17.63
2023-04-18T14:42:11.066Z,17.54
2023-04-18T14:47:12.824Z,17.46
2023-04-18T14:52:14.437Z,17.38
2023-04-18T14:57:16.284Z,17.27
2023-04-18T15:02:18.048Z,17.19
2023-04-18T15:07:19.757Z,17.13
2023-04-18T15:12:21.917Z,17.05
2023-04-18T15:17:23.477Z,16.95
2023-04-18T15:22:25.413Z,16.83
2023-04-18T15:27:27.266Z,16.71
2023-04-18T15:32:29.164Z,16.58
2023-04-18T15:37:30.781Z,16.42
2023-04-18T15:42:34.061Z,16.25
2023-04-18T15:47:36.209Z,16.13
2023-04-18T15:52:40.749Z,16.01
2023-04-18T15:57:42.583Z,15.92
2023-04-18T16:02:45.820Z,15.82
2023-04-18T16:07:47.778Z,15.70
2023-04-18T16:12:49.763Z,15.60
2023-04-18T16:17:51.454Z,15.49
2023-04-18T16:22:53.967Z,15.39
2023-04-18T16:27:55.892Z,15.29
2023-04-18T16:32:57.702Z,15.20
2023-04-18T16:37:59.457Z,15.11
2023-04-18T16:43:04.419Z,15.04
2023-04-18T16:48:06.214Z,14.96
2023-04-18T16:53:08.149Z,14.89
2023-04-18T16:58:09.923Z,14.79
2023-04-18T17:03:11.873Z,14.68
2023-04-18T17:08:13.685Z,14.55
2023-04-18T17:13:15.753Z,14.35
2023-04-18T17:18:17.426Z,14.14
2023-04-18T17:23:19.369Z,13.99
2023-04-18T17:28:23.705Z,13.87
2023-04-18T17:33:25.522Z,13.77
2023-04-18T17:38:27.165Z,13.71
2023-04-18T17:43:29.407Z,13.67
2023-04-18T17:48:31.278Z,13.62
2023-04-18T17:53:33.002Z,13.54
2023-04-18T17:58:35.787Z,13.44
2023-04-18T18:03:37.874Z,13.37
2023-04-18T18:08:40.053Z,13.29
2023-04-18T18:13:42.413Z,13.22
2023-04-18T18:18:44.063Z,13.13
2023-04-18T18:23:45.959Z,13.08
2023-04-18T18:28:47.635Z,13.03
2023-04-18T18:33:49.304Z,12.96
2023-04-18T18:38:51.126Z,12.89
2023-04-18T18:43:53.032Z,12.79
2023-04-18T18:48:54.692Z,12.70
2023-04-18T18:53:57.178Z,12.60
2023-04-18T18:58:58.834Z,12.49
2023-04-18T19:04:00.793Z,12.39
2023-04-18T19:09:02.706Z,12.31
2023-04-18T19:14:04.640Z,12.28
2023-04-18T19:19:07.394Z,12.24
2023-04-18T19:24:09.296Z,12.13
2023-04-18T19:29:13.992Z,12.02
2023-04-18T19:34:18.791Z,11.97
2023-04-18T19:39:20.495Z,11.92
2023-04-18T19:44:22.682Z,11.81
2023-04-18T19:49:24.365Z,11.63
2023-04-18T19:54:25.998Z,11.47
2023-04-18T19:59:27.794Z,11.35
2023-04-18T20:04:31.631Z,11.26
2023-04-18T20:09:33.594Z,11.19
2023-04-18T20:14:35.665Z,11.13
2023-04-18T20:19:37.300Z,11.10
2023-04-18T20:24:39.405Z,11.07
2023-04-18T20:29:41.187Z,11.02
2023-04-18T20:34:43.429Z,11.01
2023-04-18T20:39:45.533Z,11.05
2023-04-18T20:44:47.675Z,11.09
2023-04-18T20:49:49.281Z,11.12
2023-04-18T20:54:50.940Z,11.16
2023-04-18T20:59:52.653Z,11.18
2023-04-18T21:04:54.725Z,11.16
2023-04-18T21:09:57.055Z,11.14
2023-04-18T21:15:01.624Z,11.11
2023-04-18T21:20:03.494Z,11.10
2023-04-18T21:25:05.778Z,11.11
2023-04-18T21:30:08.320Z,11.10
2023-04-18T21:35:13.683Z,11.07
2023-04-18T21:40:15.930Z,11.03
2023-04-18T21:45:18.962Z,11.04
2023-04-18T21:50:22.254Z,11.06
2023-04-18T21:55:24.970Z,11.07
2023-04-18T22:00:27.745Z,11.07
2023-04-18T22:05:29.954Z,11.07
2023-04-18T22:10:34.256Z,11.09
2023-04-18T22:15:39.875Z,11.13
2023-04-18T22:20:41.581Z,11.16
2023-04-18T22:25:43.248Z,11.16
2023-04-18T22:30:45.135Z,11.16
2023-04-18T22:35:48.275Z,11.16
2023-04-18T22:40:49.954Z,11.14
2023-04-18T22:45:52.047Z,11.13
2023-04-18T22:50:54.244Z,11.14
2023-04-18T22:55:56.051Z,11.11
2023-04-18T23:00:59.334Z,11.05
2023-04-18T23:06:01.476Z,11.00
2023-04-18T23:11:05.791Z,10.99
2023-04-18T23:16:08.152Z,10.97
2023-04-18T23:21:09.850Z,10.93
2023-04-18T23:26:15.450Z,10.91
2023-04-18T23:31:17.619Z,10.92
2023-04-18T23:36:19.365Z,10.92
2023-04-18T23:41:21.826Z,10.88
2023-04-18T23:46:24.241Z,10.86
2023-04-18T23:51:27.965Z,10.85
2023-04-18T23:56:29.726Z,10.83
